sensor_id;sensor_type;location;lat;lon;timestamp;P1;durP1;ratioP1;P2;durP2;ratioP2
23404;SDS011;11875;49.356;2.718;2024-02-21T00:00:45;23.23;;;9.17;;
23404;SDS011;11875;49.356;2.718;2024-02-21T00:03:10;23.50;;;8.93;;
23404;SDS011;11875;49.356;2.718;2024-02-21T00:05:36;19.70;;;8.20;;
23404;SDS011;11875;49.356;2.718;2024-02-21T00:08:02;21.63;;;8.67;;
23404;SDS011;11875;49.356;2.718;2024-02-21T00:10:28;22.40;;;8.67;;
23404;SDS011;11875;49.356;2.718;2024-02-21T00:12:53;21.23;;;8.83;;
23404;SDS011;11875;49.356;2.718;2024-02-21T00:15:19;24.83;;;9.53;;
23404;SDS011;11875;49.356;2.718;2024-02-21T00:17:45;22.47;;;8.27;;
23404;SDS011;11875;49.356;2.718;2024-02-21T00:20:10;19.97;;;8.83;;
23404;SDS011;11875;49.356;2.718;2024-02-21T00:22:36;28.93;;;9.13;;
23404;SDS011;11875;49.356;2.718;2024-02-21T00:25:02;23.13;;;9.10;;
23404;SDS011;11875;49.356;2.718;2024-02-21T00:27:28;16.67;;;8.70;;
23404;SDS011;11875;49.356;2.718;2024-02-21T00:29:54;21.47;;;9.13;;
23404;SDS011;11875;49.356;2.718;2024-02-21T00:32:19;19.20;;;8.23;;
23404;SDS011;11875;49.356;2.718;2024-02-21T00:34:45;23.30;;;8.40;;
23404;SDS011;11875;49.356;2.718;2024-02-21T00:37:11;22.67;;;8.37;;
23404;SDS011;11875;49.356;2.718;2024-02-21T00:39:37;21.70;;;8.30;;
23404;SDS011;11875;49.356;2.718;2024-02-21T00:42:02;23.83;;;8.87;;
23404;SDS011;11875;49.356;2.718;2024-02-21T00:44:28;22.83;;;8.57;;
23404;SDS011;11875;49.356;2.718;2024-02-21T00:46:54;20.97;;;8.87;;
23404;SDS011;11875;49.356;2.718;2024-02-21T00:49:20;20.80;;;9.37;;
23404;SDS011;11875;49.356;2.718;2024-02-21T00:51:46;20.10;;;8.90;;
23404;SDS011;11875;49.356;2.718;2024-02-21T00:54:12;22.13;;;8.40;;
23404;SDS011;11875;49.356;2.718;2024-02-21T00:56:37;21.13;;;8.37;;
23404;SDS011;11875;49.356;2.718;2024-02-21T00:59:03;13.23;;;8.60;;
23404;SDS011;11875;49.356;2.718;2024-02-21T01:01:28;18.40;;;7.73;;
23404;SDS011;11875;49.356;2.718;2024-02-21T01:03:54;19.83;;;8.23;;
23404;SDS011;11875;49.356;2.718;2024-02-21T01:06:20;22.40;;;8.93;;
23404;SDS011;11875;49.356;2.718;2024-02-21T01:08:46;18.23;;;8.60;;
23404;SDS011;11875;49.356;2.718;2024-02-21T01:11:15;18.40;;;9.47;;
23404;SDS011;11875;49.356;2.718;2024-02-21T01:13:41;20.23;;;9.63;;
23404;SDS011;11875;49.356;2.718;2024-02-21T01:16:07;24.97;;;9.10;;
23404;SDS011;11875;49.356;2.718;2024-02-21T01:18:38;24.60;;;9.10;;
23404;SDS011;11875;49.356;2.718;2024-02-21T01:21:05;17.07;;;8.80;;
23404;SDS011;11875;49.356;2.718;2024-02-21T01:23:32;24.10;;;8.87;;
23404;SDS011;11875;49.356;2.718;2024-02-21T01:25:59;18.37;;;8.77;;
23404;SDS011;11875;49.356;2.718;2024-02-21T01:28:24;19.03;;;8.77;;
23404;SDS011;11875;49.356;2.718;2024-02-21T01:30:50;20.13;;;9.10;;
23404;SDS011;11875;49.356;2.718;2024-02-21T01:33:16;23.90;;;9.47;;
23404;SDS011;11875;49.356;2.718;2024-02-21T01:35:42;27.40;;;9.77;;
23404;SDS011;11875;49.356;2.718;2024-02-21T01:38:07;20.57;;;9.33;;
23404;SDS011;11875;49.356;2.718;2024-02-21T01:40:33;14.70;;;8.53;;
23404;SDS011;11875;49.356;2.718;2024-02-21T01:42:58;20.03;;;9.40;;
23404;SDS011;11875;49.356;2.718;2024-02-21T01:45:24;28.23;;;9.90;;
23404;SDS011;11875;49.356;2.718;2024-02-21T01:47:50;19.50;;;9.10;;
23404;SDS011;11875;49.356;2.718;2024-02-21T01:50:16;24.57;;;8.80;;
23404;SDS011;11875;49.356;2.718;2024-02-21T01:52:45;20.43;;;8.77;;
23404;SDS011;11875;49.356;2.718;2024-02-21T01:55:13;21.40;;;8.70;;
23404;SDS011;11875;49.356;2.718;2024-02-21T01:57:40;18.17;;;8.67;;
23404;SDS011;11875;49.356;2.718;2024-02-21T02:00:08;17.87;;;9.00;;
23404;SDS011;11875;49.356;2.718;2024-02-21T02:02:35;19.03;;;8.77;;
23404;SDS011;11875;49.356;2.718;2024-02-21T02:05:02;21.77;;;8.97;;
23404;SDS011;11875;49.356;2.718;2024-02-21T02:07:28;19.00;;;9.03;;
23404;SDS011;11875;49.356;2.718;2024-02-21T02:09:53;22.70;;;9.23;;
23404;SDS011;11875;49.356;2.718;2024-02-21T02:12:19;20.57;;;8.77;;
23404;SDS011;11875;49.356;2.718;2024-02-21T02:14:45;20.00;;;9.23;;
23404;SDS011;11875;49.356;2.718;2024-02-21T02:17:10;22.13;;;9.60;;
23404;SDS011;11875;49.356;2.718;2024-02-21T02:19:36;16.27;;;8.20;;
23404;SDS011;11875;49.356;2.718;2024-02-21T02:22:08;20.63;;;8.83;;
23404;SDS011;11875;49.356;2.718;2024-02-21T02:24:38;20.60;;;9.60;;
23404;SDS011;11875;49.356;2.718;2024-02-21T02:27:04;22.80;;;9.53;;
23404;SDS011;11875;49.356;2.718;2024-02-21T02:29:31;21.23;;;9.10;;
23404;SDS011;11875;49.356;2.718;2024-02-21T02:31:57;22.60;;;9.20;;
23404;SDS011;11875;49.356;2.718;2024-02-21T02:34:23;17.40;;;8.63;;
23404;SDS011;11875;49.356;2.718;2024-02-21T02:36:49;17.50;;;9.00;;
23404;SDS011;11875;49.356;2.718;2024-02-21T02:39:14;21.77;;;9.27;;
23404;SDS011;11875;49.356;2.718;2024-02-21T02:41:40;19.90;;;9.17;;
23404;SDS011;11875;49.356;2.718;2024-02-21T02:44:05;17.33;;;8.67;;
23404;SDS011;11875;49.356;2.718;2024-02-21T02:46:31;21.07;;;9.50;;
23404;SDS011;11875;49.356;2.718;2024-02-21T02:48:57;19.47;;;9.10;;
23404;SDS011;11875;49.356;2.718;2024-02-21T02:51:22;17.70;;;8.37;;
23404;SDS011;11875;49.356;2.718;2024-02-21T02:53:48;22.47;;;8.90;;
23404;SDS011;11875;49.356;2.718;2024-02-21T02:56:14;22.07;;;8.23;;
23404;SDS011;11875;49.356;2.718;2024-02-21T02:58:40;20.60;;;7.93;;
23404;SDS011;11875;49.356;2.718;2024-02-21T03:01:07;17.90;;;8.33;;
23404;SDS011;11875;49.356;2.718;2024-02-21T03:03:33;26.03;;;8.47;;
23404;SDS011;11875;49.356;2.718;2024-02-21T03:05:58;20.47;;;9.13;;
23404;SDS011;11875;49.356;2.718;2024-02-21T03:08:24;15.40;;;7.50;;
23404;SDS011;11875;49.356;2.718;2024-02-21T03:10:49;17.50;;;7.73;;
23404;SDS011;11875;49.356;2.718;2024-02-21T03:13:15;18.47;;;8.10;;
23404;SDS011;11875;49.356;2.718;2024-02-21T03:15:40;19.63;;;8.13;;
23404;SDS011;11875;49.356;2.718;2024-02-21T03:18:06;18.33;;;8.40;;
23404;SDS011;11875;49.356;2.718;2024-02-21T03:20:32;20.87;;;7.60;;
23404;SDS011;11875;49.356;2.718;2024-02-21T03:22:57;17.30;;;8.03;;
23404;SDS011;11875;49.356;2.718;2024-02-21T03:25:23;14.73;;;7.23;;
23404;SDS011;11875;49.356;2.718;2024-02-21T03:27:48;14.97;;;8.10;;
23404;SDS011;11875;49.356;2.718;2024-02-21T03:30:14;21.80;;;7.73;;
23404;SDS011;11875;49.356;2.718;2024-02-21T03:32:40;18.20;;;7.50;;
23404;SDS011;11875;49.356;2.718;2024-02-21T03:35:05;16.47;;;7.40;;
23404;SDS011;11875;49.356;2.718;2024-02-21T03:37:31;16.33;;;7.13;;
23404;SDS011;11875;49.356;2.718;2024-02-21T03:39:57;16.53;;;7.60;;
23404;SDS011;11875;49.356;2.718;2024-02-21T03:42:22;15.93;;;7.73;;
23404;SDS011;11875;49.356;2.718;2024-02-21T03:44:48;27.17;;;7.33;;
23404;SDS011;11875;49.356;2.718;2024-02-21T03:47:13;21.03;;;7.70;;
23404;SDS011;11875;49.356;2.718;2024-02-21T03:49:39;18.60;;;7.70;;
23404;SDS011;11875;49.356;2.718;2024-02-21T03:52:05;22.07;;;7.43;;
23404;SDS011;11875;49.356;2.718;2024-02-21T03:54:30;19.70;;;7.20;;
23404;SDS011;11875;49.356;2.718;2024-02-21T03:56:56;16.37;;;6.30;;
23404;SDS011;11875;49.356;2.718;2024-02-21T03:59:22;12.43;;;6.10;;
23404;SDS011;11875;49.356;2.718;2024-02-21T04:01:51;17.63;;;6.00;;
23404;SDS011;11875;49.356;2.718;2024-02-21T04:04:19;16.17;;;6.80;;
23404;SDS011;11875;49.356;2.718;2024-02-21T04:06:46;13.73;;;6.63;;
23404;SDS011;11875;49.356;2.718;2024-02-21T04:09:15;12.27;;;6.73;;
23404;SDS011;11875;49.356;2.718;2024-02-21T04:11:40;13.80;;;5.97;;
23404;SDS011;11875;49.356;2.718;2024-02-21T04:14:06;14.30;;;5.93;;
23404;SDS011;11875;49.356;2.718;2024-02-21T04:16:32;14.00;;;7.17;;
23404;SDS011;11875;49.356;2.718;2024-02-21T04:18:58;15.20;;;6.63;;
23404;SDS011;11875;49.356;2.718;2024-02-21T04:21:23;16.17;;;6.33;;
23404;SDS011;11875;49.356;2.718;2024-02-21T04:23:49;14.70;;;6.20;;
23404;SDS011;11875;49.356;2.718;2024-02-21T04:26:15;13.40;;;6.97;;
23404;SDS011;11875;49.356;2.718;2024-02-21T04:28:40;14.87;;;6.63;;
23404;SDS011;11875;49.356;2.718;2024-02-21T04:31:06;13.57;;;6.10;;
23404;SDS011;11875;49.356;2.718;2024-02-21T04:33:32;13.67;;;6.43;;
23404;SDS011;11875;49.356;2.718;2024-02-21T04:35:57;19.23;;;6.63;;
23404;SDS011;11875;49.356;2.718;2024-02-21T04:38:24;11.87;;;6.67;;
23404;SDS011;11875;49.356;2.718;2024-02-21T04:40:50;15.13;;;6.30;;
23404;SDS011;11875;49.356;2.718;2024-02-21T04:43:15;11.83;;;6.17;;
23404;SDS011;11875;49.356;2.718;2024-02-21T04:45:41;12.23;;;5.50;;
23404;SDS011;11875;49.356;2.718;2024-02-21T04:48:06;19.27;;;7.10;;
23404;SDS011;11875;49.356;2.718;2024-02-21T04:50:32;12.80;;;6.03;;
23404;SDS011;11875;49.356;2.718;2024-02-21T04:52:58;15.10;;;7.13;;
23404;SDS011;11875;49.356;2.718;2024-02-21T04:55:23;16.10;;;6.20;;
23404;SDS011;11875;49.356;2.718;2024-02-21T04:57:49;13.53;;;6.10;;
23404;SDS011;11875;49.356;2.718;2024-02-21T05:00:15;13.83;;;6.60;;
23404;SDS011;11875;49.356;2.718;2024-02-21T05:02:40;12.57;;;6.73;;
23404;SDS011;11875;49.356;2.718;2024-02-21T05:05:06;13.33;;;6.47;;
23404;SDS011;11875;49.356;2.718;2024-02-21T05:07:32;12.30;;;6.20;;
23404;SDS011;11875;49.356;2.718;2024-02-21T05:09:57;10.67;;;5.63;;
23404;SDS011;11875;49.356;2.718;2024-02-21T05:12:23;11.93;;;6.43;;
23404;SDS011;11875;49.356;2.718;2024-02-21T05:14:48;12.17;;;5.80;;
23404;SDS011;11875;49.356;2.718;2024-02-21T05:17:14;11.53;;;6.43;;
23404;SDS011;11875;49.356;2.718;2024-02-21T05:19:40;17.23;;;6.07;;
23404;SDS011;11875;49.356;2.718;2024-02-21T05:22:06;15.53;;;6.37;;
23404;SDS011;11875;49.356;2.718;2024-02-21T05:24:31;13.37;;;6.13;;
23404;SDS011;11875;49.356;2.718;2024-02-21T05:26:57;10.73;;;5.53;;
23404;SDS011;11875;49.356;2.718;2024-02-21T05:29:22;13.90;;;6.40;;
23404;SDS011;11875;49.356;2.718;2024-02-21T05:34:20;14.77;;;7.17;;
23404;SDS011;11875;49.356;2.718;2024-02-21T05:36:46;11.57;;;6.10;;
23404;SDS011;11875;49.356;2.718;2024-02-21T05:39:15;15.20;;;6.07;;
23404;SDS011;11875;49.356;2.718;2024-02-21T05:41:42;16.23;;;6.50;;
23404;SDS011;11875;49.356;2.718;2024-02-21T05:44:07;19.20;;;6.33;;
23404;SDS011;11875;49.356;2.718;2024-02-21T05:46:33;11.47;;;6.27;;
23404;SDS011;11875;49.356;2.718;2024-02-21T05:48:59;11.87;;;6.03;;
23404;SDS011;11875;49.356;2.718;2024-02-21T05:51:24;10.63;;;5.63;;
23404;SDS011;11875;49.356;2.718;2024-02-21T05:53:50;8.83;;;6.20;;
23404;SDS011;11875;49.356;2.718;2024-02-21T05:56:15;13.87;;;6.50;;
23404;SDS011;11875;49.356;2.718;2024-02-21T05:58:43;15.57;;;6.70;;
23404;SDS011;11875;49.356;2.718;2024-02-21T06:01:09;14.43;;;6.50;;
23404;SDS011;11875;49.356;2.718;2024-02-21T06:03:34;16.80;;;6.83;;
23404;SDS011;11875;49.356;2.718;2024-02-21T06:06:01;16.67;;;6.77;;
23404;SDS011;11875;49.356;2.718;2024-02-21T06:08:27;15.40;;;5.93;;
23404;SDS011;11875;49.356;2.718;2024-02-21T06:10:53;17.67;;;6.10;;
23404;SDS011;11875;49.356;2.718;2024-02-21T06:13:23;13.20;;;6.00;;
23404;SDS011;11875;49.356;2.718;2024-02-21T06:15:49;14.17;;;5.90;;
23404;SDS011;11875;49.356;2.718;2024-02-21T06:18:15;11.83;;;5.90;;
23404;SDS011;11875;49.356;2.718;2024-02-21T06:20:44;13.27;;;5.37;;
23404;SDS011;11875;49.356;2.718;2024-02-21T06:23:11;8.17;;;5.00;;
23404;SDS011;11875;49.356;2.718;2024-02-21T06:25:37;10.77;;;5.70;;
23404;SDS011;11875;49.356;2.718;2024-02-21T06:28:04;9.13;;;5.53;;
23404;SDS011;11875;49.356;2.718;2024-02-21T06:30:30;13.83;;;5.77;;
23404;SDS011;11875;49.356;2.718;2024-02-21T06:32:56;15.80;;;6.10;;
23404;SDS011;11875;49.356;2.718;2024-02-21T06:35:22;17.70;;;6.03;;
23404;SDS011;11875;49.356;2.718;2024-02-21T06:37:49;14.83;;;5.93;;
23404;SDS011;11875;49.356;2.718;2024-02-21T06:40:16;14.97;;;5.77;;
23404;SDS011;11875;49.356;2.718;2024-02-21T06:42:46;12.43;;;5.57;;
23404;SDS011;11875;49.356;2.718;2024-02-21T06:45:12;15.53;;;6.80;;
23404;SDS011;11875;49.356;2.718;2024-02-21T06:47:37;17.60;;;5.60;;
23404;SDS011;11875;49.356;2.718;2024-02-21T06:50:03;13.20;;;5.53;;
23404;SDS011;11875;49.356;2.718;2024-02-21T06:52:29;11.20;;;4.90;;
23404;SDS011;11875;49.356;2.718;2024-02-21T06:54:56;12.97;;;5.30;;
23404;SDS011;11875;49.356;2.718;2024-02-21T06:57:21;11.53;;;5.50;;
23404;SDS011;11875;49.356;2.718;2024-02-21T06:59:47;11.33;;;6.03;;
23404;SDS011;11875;49.356;2.718;2024-02-21T07:02:13;17.47;;;6.10;;
23404;SDS011;11875;49.356;2.718;2024-02-21T07:04:38;16.80;;;5.60;;
23404;SDS011;11875;49.356;2.718;2024-02-21T07:07:04;13.57;;;5.63;;
23404;SDS011;11875;49.356;2.718;2024-02-21T07:09:29;11.40;;;5.40;;
23404;SDS011;11875;49.356;2.718;2024-02-21T07:11:57;10.83;;;5.33;;
23404;SDS011;11875;49.356;2.718;2024-02-21T07:14:23;11.67;;;4.93;;
23404;SDS011;11875;49.356;2.718;2024-02-21T07:16:48;9.63;;;5.00;;
23404;SDS011;11875;49.356;2.718;2024-02-21T07:19:14;16.50;;;7.37;;
23404;SDS011;11875;49.356;2.718;2024-02-21T07:21:39;14.60;;;5.57;;
23404;SDS011;11875;49.356;2.718;2024-02-21T07:24:07;11.43;;;5.13;;
23404;SDS011;11875;49.356;2.718;2024-02-21T07:26:33;13.57;;;5.43;;
23404;SDS011;11875;49.356;2.718;2024-02-21T07:28:58;14.37;;;5.63;;
23404;SDS011;11875;49.356;2.718;2024-02-21T07:31:24;10.37;;;5.50;;
23404;SDS011;11875;49.356;2.718;2024-02-21T07:33:49;13.63;;;5.70;;
23404;SDS011;11875;49.356;2.718;2024-02-21T07:36:15;22.33;;;6.17;;
23404;SDS011;11875;49.356;2.718;2024-02-21T07:38:49;17.03;;;6.27;;
23404;SDS011;11875;49.356;2.718;2024-02-21T07:41:15;13.37;;;5.60;;
23404;SDS011;11875;49.356;2.718;2024-02-21T07:43:41;16.60;;;6.27;;
23404;SDS011;11875;49.356;2.718;2024-02-21T07:46:06;21.27;;;7.37;;
23404;SDS011;11875;49.356;2.718;2024-02-21T07:48:32;26.23;;;7.03;;
23404;SDS011;11875;49.356;2.718;2024-02-21T07:50:57;18.30;;;7.37;;
23404;SDS011;11875;49.356;2.718;2024-02-21T07:53:23;22.97;;;6.93;;
23404;SDS011;11875;49.356;2.718;2024-02-21T07:55:48;13.57;;;6.43;;
23404;SDS011;11875;49.356;2.718;2024-02-21T07:58:14;16.10;;;6.00;;
23404;SDS011;11875;49.356;2.718;2024-02-21T08:00:39;16.23;;;6.20;;
23404;SDS011;11875;49.356;2.718;2024-02-21T08:03:05;20.13;;;7.17;;
23404;SDS011;11875;49.356;2.718;2024-02-21T08:05:30;18.60;;;5.90;;
23404;SDS011;11875;49.356;2.718;2024-02-21T08:07:59;15.73;;;6.23;;
23404;SDS011;11875;49.356;2.718;2024-02-21T08:10:25;11.53;;;6.20;;
23404;SDS011;11875;49.356;2.718;2024-02-21T08:12:50;20.73;;;6.37;;
23404;SDS011;11875;49.356;2.718;2024-02-21T08:15:16;12.57;;;5.30;;
23404;SDS011;11875;49.356;2.718;2024-02-21T08:17:42;12.67;;;5.30;;
23404;SDS011;11875;49.356;2.718;2024-02-21T08:20:07;11.67;;;4.70;;
23404;SDS011;11875;49.356;2.718;2024-02-21T08:22:33;13.93;;;5.10;;
23404;SDS011;11875;49.356;2.718;2024-02-21T08:25:02;16.40;;;5.00;;
23404;SDS011;11875;49.356;2.718;2024-02-21T08:27:30;10.37;;;4.90;;
23404;SDS011;11875;49.356;2.718;2024-02-21T08:29:56;11.57;;;4.90;;
23404;SDS011;11875;49.356;2.718;2024-02-21T08:32:21;16.83;;;6.10;;
23404;SDS011;11875;49.356;2.718;2024-02-21T08:34:47;14.63;;;5.60;;
23404;SDS011;11875;49.356;2.718;2024-02-21T08:37:12;8.90;;;5.07;;
23404;SDS011;11875;49.356;2.718;2024-02-21T08:39:38;11.63;;;4.77;;
23404;SDS011;11875;49.356;2.718;2024-02-21T08:42:04;15.77;;;6.13;;
23404;SDS011;11875;49.356;2.718;2024-02-21T08:44:30;11.57;;;5.13;;
23404;SDS011;11875;49.356;2.718;2024-02-21T08:46:55;15.57;;;5.60;;
23404;SDS011;11875;49.356;2.718;2024-02-21T08:49:21;22.47;;;6.37;;
23404;SDS011;11875;49.356;2.718;2024-02-21T08:51:47;16.30;;;5.93;;
23404;SDS011;11875;49.356;2.718;2024-02-21T08:54:13;18.27;;;6.63;;
23404;SDS011;11875;49.356;2.718;2024-02-21T08:56:38;9.67;;;4.70;;
23404;SDS011;11875;49.356;2.718;2024-02-21T08:59:04;8.40;;;5.07;;
23404;SDS011;11875;49.356;2.718;2024-02-21T09:01:29;13.30;;;5.00;;
23404;SDS011;11875;49.356;2.718;2024-02-21T09:03:55;19.00;;;5.20;;
23404;SDS011;11875;49.356;2.718;2024-02-21T09:06:21;18.83;;;5.73;;
23404;SDS011;11875;49.356;2.718;2024-02-21T09:08:48;13.80;;;5.13;;
23404;SDS011;11875;49.356;2.718;2024-02-21T09:11:14;15.33;;;5.17;;
23404;SDS011;11875;49.356;2.718;2024-02-21T09:13:39;16.63;;;5.87;;
23404;SDS011;11875;49.356;2.718;2024-02-21T09:16:05;28.33;;;6.80;;
23404;SDS011;11875;49.356;2.718;2024-02-21T09:18:31;11.73;;;4.40;;
23404;SDS011;11875;49.356;2.718;2024-02-21T09:20:57;12.83;;;5.17;;
23404;SDS011;11875;49.356;2.718;2024-02-21T09:23:25;15.87;;;4.97;;
23404;SDS011;11875;49.356;2.718;2024-02-21T09:25:51;17.37;;;5.20;;
23404;SDS011;11875;49.356;2.718;2024-02-21T09:28:17;12.43;;;5.10;;
23404;SDS011;11875;49.356;2.718;2024-02-21T09:30:42;14.90;;;4.70;;
23404;SDS011;11875;49.356;2.718;2024-02-21T09:33:08;21.80;;;5.20;;
23404;SDS011;11875;49.356;2.718;2024-02-21T09:35:33;19.23;;;5.63;;
23404;SDS011;11875;49.356;2.718;2024-02-21T09:37:59;16.13;;;5.80;;
23404;SDS011;11875;49.356;2.718;2024-02-21T09:40:25;11.77;;;5.37;;
23404;SDS011;11875;49.356;2.718;2024-02-21T09:42:56;16.23;;;5.27;;
23404;SDS011;11875;49.356;2.718;2024-02-21T09:45:32;9.10;;;4.37;;
23404;SDS011;11875;49.356;2.718;2024-02-21T09:50:46;15.03;;;5.07;;
23404;SDS011;11875;49.356;2.718;2024-02-21T09:53:14;11.33;;;5.10;;
23404;SDS011;11875;49.356;2.718;2024-02-21T09:55:40;14.03;;;5.20;;
23404;SDS011;11875;49.356;2.718;2024-02-21T09:58:07;22.37;;;5.90;;
23404;SDS011;11875;49.356;2.718;2024-02-21T10:00:34;9.90;;;5.10;;
23404;SDS011;11875;49.356;2.718;2024-02-21T10:03:00;10.60;;;4.70;;
23404;SDS011;11875;49.356;2.718;2024-02-21T10:05:26;8.50;;;4.43;;
23404;SDS011;11875;49.356;2.718;2024-02-21T10:07:52;14.60;;;4.40;;
23404;SDS011;11875;49.356;2.718;2024-02-21T10:10:19;13.90;;;4.60;;
23404;SDS011;11875;49.356;2.718;2024-02-21T10:12:50;15.23;;;4.50;;
23404;SDS011;11875;49.356;2.718;2024-02-21T10:15:19;14.07;;;4.53;;
23404;SDS011;11875;49.356;2.718;2024-02-21T10:17:47;15.07;;;4.93;;
23404;SDS011;11875;49.356;2.718;2024-02-21T10:20:13;26.23;;;6.70;;
23404;SDS011;11875;49.356;2.718;2024-02-21T10:22:40;14.83;;;5.13;;
23404;SDS011;11875;49.356;2.718;2024-02-21T10:25:09;11.17;;;5.10;;
23404;SDS011;11875;49.356;2.718;2024-02-21T10:27:35;20.13;;;5.83;;
23404;SDS011;11875;49.356;2.718;2024-02-21T10:30:02;11.63;;;4.90;;
23404;SDS011;11875;49.356;2.718;2024-02-21T10:32:28;17.23;;;5.07;;
23404;SDS011;11875;49.356;2.718;2024-02-21T10:35:02;7.60;;;4.37;;
23404;SDS011;11875;49.356;2.718;2024-02-21T10:37:29;10.80;;;4.40;;
23404;SDS011;11875;49.356;2.718;2024-02-21T10:39:56;7.77;;;4.53;;
23404;SDS011;11875;49.356;2.718;2024-02-21T10:42:22;17.03;;;5.30;;
23404;SDS011;11875;49.356;2.718;2024-02-21T10:44:50;14.03;;;4.97;;
23404;SDS011;11875;49.356;2.718;2024-02-21T10:47:19;13.23;;;4.80;;
23404;SDS011;11875;49.356;2.718;2024-02-21T10:49:49;22.33;;;5.87;;
23404;SDS011;11875;49.356;2.718;2024-02-21T10:53:09;15.17;;;4.60;;
23404;SDS011;11875;49.356;2.718;2024-02-21T10:56:01;18.37;;;4.97;;
23404;SDS011;11875;49.356;2.718;2024-02-21T10:58:29;9.60;;;3.80;;
23404;SDS011;11875;49.356;2.718;2024-02-21T11:00:56;11.43;;;4.50;;
23404;SDS011;11875;49.356;2.718;2024-02-21T11:03:22;20.10;;;5.00;;
23404;SDS011;11875;49.356;2.718;2024-02-21T11:05:48;12.47;;;4.97;;
23404;SDS011;11875;49.356;2.718;2024-02-21T11:08:14;15.17;;;5.10;;
23404;SDS011;11875;49.356;2.718;2024-02-21T11:10:45;12.87;;;3.77;;
23404;SDS011;11875;49.356;2.718;2024-02-21T11:13:11;12.97;;;4.07;;
23404;SDS011;11875;49.356;2.718;2024-02-21T11:15:36;8.93;;;4.47;;
23404;SDS011;11875;49.356;2.718;2024-02-21T11:18:02;8.60;;;3.27;;
23404;SDS011;11875;49.356;2.718;2024-02-21T11:20:34;10.30;;;4.53;;
23404;SDS011;11875;49.356;2.718;2024-02-21T11:23:01;7.37;;;4.00;;
23404;SDS011;11875;49.356;2.718;2024-02-21T11:25:27;8.67;;;4.13;;
23404;SDS011;11875;49.356;2.718;2024-02-21T11:28:02;8.93;;;3.73;;
23404;SDS011;11875;49.356;2.718;2024-02-21T11:30:35;15.77;;;4.27;;
23404;SDS011;11875;49.356;2.718;2024-02-21T11:33:03;12.83;;;4.40;;
23404;SDS011;11875;49.356;2.718;2024-02-21T11:35:34;7.38;;;3.78;;
23404;SDS011;11875;49.356;2.718;2024-02-21T11:38:13;7.63;;;4.17;;
23404;SDS011;11875;49.356;2.718;2024-02-21T11:40:45;15.20;;;4.03;;
23404;SDS011;11875;49.356;2.718;2024-02-21T11:43:12;9.40;;;4.13;;
23404;SDS011;11875;49.356;2.718;2024-02-21T11:45:37;8.90;;;3.47;;
23404;SDS011;11875;49.356;2.718;2024-02-21T11:48:05;5.40;;;3.70;;
23404;SDS011;11875;49.356;2.718;2024-02-21T11:50:31;8.00;;;4.00;;
23404;SDS011;11875;49.356;2.718;2024-02-21T11:52:57;11.97;;;4.50;;
23404;SDS011;11875;49.356;2.718;2024-02-21T11:55:23;11.15;;;4.45;;
23404;SDS011;11875;49.356;2.718;2024-02-21T11:57:49;7.40;;;3.93;;
23404;SDS011;11875;49.356;2.718;2024-02-21T12:00:15;6.60;;;3.60;;
23404;SDS011;11875;49.356;2.718;2024-02-21T12:02:43;9.17;;;4.37;;
23404;SDS011;11875;49.356;2.718;2024-02-21T12:05:10;9.90;;;4.60;;
23404;SDS011;11875;49.356;2.718;2024-02-21T12:07:39;17.33;;;4.50;;
23404;SDS011;11875;49.356;2.718;2024-02-21T12:10:08;11.27;;;3.87;;
23404;SDS011;11875;49.356;2.718;2024-02-21T12:12:35;16.50;;;4.22;;
23404;SDS011;11875;49.356;2.718;2024-02-21T12:15:03;13.33;;;4.37;;
23404;SDS011;11875;49.356;2.718;2024-02-21T12:17:29;11.20;;;4.33;;
23404;SDS011;11875;49.356;2.718;2024-02-21T12:19:56;6.78;;;4.40;;
23404;SDS011;11875;49.356;2.718;2024-02-21T12:22:22;12.53;;;3.73;;
23404;SDS011;11875;49.356;2.718;2024-02-21T12:24:48;10.98;;;4.60;;
23404;SDS011;11875;49.356;2.718;2024-02-21T12:27:13;10.90;;;4.18;;
23404;SDS011;11875;49.356;2.718;2024-02-21T12:29:39;10.32;;;4.28;;
23404;SDS011;11875;49.356;2.718;2024-02-21T12:32:04;11.77;;;5.53;;
23404;SDS011;11875;49.356;2.718;2024-02-21T12:34:30;9.93;;;4.10;;
23404;SDS011;11875;49.356;2.718;2024-02-21T12:36:58;17.05;;;5.13;;
23404;SDS011;11875;49.356;2.718;2024-02-21T12:39:24;18.03;;;5.27;;
23404;SDS011;11875;49.356;2.718;2024-02-21T12:41:52;7.78;;;3.75;;
23404;SDS011;11875;49.356;2.718;2024-02-21T12:44:19;14.65;;;4.20;;
23404;SDS011;11875;49.356;2.718;2024-02-21T12:46:44;8.65;;;4.53;;
23404;SDS011;11875;49.356;2.718;2024-02-21T12:49:10;14.43;;;4.78;;
23404;SDS011;11875;49.356;2.718;2024-02-21T12:51:35;15.35;;;4.40;;
23404;SDS011;11875;49.356;2.718;2024-02-21T12:54:01;17.48;;;4.53;;
23404;SDS011;11875;49.356;2.718;2024-02-21T12:56:30;16.67;;;4.57;;
23404;SDS011;11875;49.356;2.718;2024-02-21T12:58:56;10.73;;;3.75;;
23404;SDS011;11875;49.356;2.718;2024-02-21T13:01:22;5.67;;;3.97;;
23404;SDS011;11875;49.356;2.718;2024-02-21T13:03:47;14.73;;;4.15;;
23404;SDS011;11875;49.356;2.718;2024-02-21T13:06:13;6.18;;;3.13;;
23404;SDS011;11875;49.356;2.718;2024-02-21T13:08:39;9.55;;;4.43;;
23404;SDS011;11875;49.356;2.718;2024-02-21T13:11:04;12.88;;;4.38;;
23404;SDS011;11875;49.356;2.718;2024-02-21T13:13:30;8.65;;;3.60;;
23404;SDS011;11875;49.356;2.718;2024-02-21T13:15:57;11.30;;;3.40;;
23404;SDS011;11875;49.356;2.718;2024-02-21T13:18:23;13.88;;;3.50;;
23404;SDS011;11875;49.356;2.718;2024-02-21T13:20:48;9.30;;;3.13;;
23404;SDS011;11875;49.356;2.718;2024-02-21T13:23:14;7.50;;;3.97;;
23404;SDS011;11875;49.356;2.718;2024-02-21T13:25:40;7.75;;;3.13;;
23404;SDS011;11875;49.356;2.718;2024-02-21T13:28:05;13.40;;;3.60;;
23404;SDS011;11875;49.356;2.718;2024-02-21T13:30:32;8.48;;;3.40;;
23404;SDS011;11875;49.356;2.718;2024-02-21T13:32:57;3.87;;;2.90;;
23404;SDS011;11875;49.356;2.718;2024-02-21T13:35:23;9.60;;;3.33;;
23404;SDS011;11875;49.356;2.718;2024-02-21T13:37:48;6.22;;;3.22;;
23404;SDS011;11875;49.356;2.718;2024-02-21T13:40:15;7.80;;;3.58;;
23404;SDS011;11875;49.356;2.718;2024-02-21T13:42:41;9.23;;;3.17;;
23404;SDS011;11875;49.356;2.718;2024-02-21T13:45:08;8.48;;;3.33;;
23404;SDS011;11875;49.356;2.718;2024-02-21T13:47:34;11.38;;;3.17;;
23404;SDS011;11875;49.356;2.718;2024-02-21T13:50:01;10.07;;;3.85;;
23404;SDS011;11875;49.356;2.718;2024-02-21T13:52:29;4.43;;;3.17;;
23404;SDS011;11875;49.356;2.718;2024-02-21T13:54:56;7.67;;;3.00;;
23404;SDS011;11875;49.356;2.718;2024-02-21T13:57:22;7.90;;;3.65;;
23404;SDS011;11875;49.356;2.718;2024-02-21T13:59:48;7.35;;;3.30;;
23404;SDS011;11875;49.356;2.718;2024-02-21T14:02:13;10.63;;;3.97;;
23404;SDS011;11875;49.356;2.718;2024-02-21T14:04:39;11.53;;;3.90;;
23404;SDS011;11875;49.356;2.718;2024-02-21T14:07:04;11.00;;;4.28;;
23404;SDS011;11875;49.356;2.718;2024-02-21T14:09:30;7.47;;;4.05;;
23404;SDS011;11875;49.356;2.718;2024-02-21T14:11:55;7.57;;;4.07;;
23404;SDS011;11875;49.356;2.718;2024-02-21T14:14:21;8.90;;;3.90;;
23404;SDS011;11875;49.356;2.718;2024-02-21T14:16:47;8.53;;;4.03;;
23404;SDS011;11875;49.356;2.718;2024-02-21T14:19:13;11.48;;;4.50;;
23404;SDS011;11875;49.356;2.718;2024-02-21T14:21:39;7.70;;;3.40;;
23404;SDS011;11875;49.356;2.718;2024-02-21T14:24:05;8.20;;;4.00;;
23404;SDS011;11875;49.356;2.718;2024-02-21T14:26:31;9.30;;;4.27;;
23404;SDS011;11875;49.356;2.718;2024-02-21T14:28:57;6.00;;;3.90;;
23404;SDS011;11875;49.356;2.718;2024-02-21T14:31:23;9.00;;;4.10;;
23404;SDS011;11875;49.356;2.718;2024-02-21T14:33:49;7.67;;;3.90;;
23404;SDS011;11875;49.356;2.718;2024-02-21T14:36:14;7.97;;;4.10;;